Flight Track Log - Related Links

Times and Time Zones

All times are in EDT time to prevent confusion due to time zone crossing. See the EJA831 flight status page for this flight to view local times or setup timezone preferences in your user account.

Time Position Orientation Groundspeed Altitude Reporting Facility
EDT Latitude Longitude Course Direction KTS MPH feet Rate Location/Type
Fri 10:10:41 AM 26.2025 -81.7050 North 223 257 4,000  Level Miami Center
Fri 10:11:41 AM 26.2553 -81.6308 52° Northeast 261 300 7,400 2,750 Climbing Miami Center
Fri 10:12:41 AM 26.3136 -81.6331 358° North 295 339 9,500 1,650 Climbing Miami Center
Fri 10:13:41 AM 26.3944 -81.6456 352° North 290 334 10,700 750 Climbing Miami Center
Fri 10:14:41 AM 26.4881 -81.6611 352° North 319 367 11,000 850 Climbing Miami Center
Fri 10:15:41 AM 26.5772 -81.6761 351° North 326 375 12,400 1,800 Climbing Miami Center
Fri 10:16:00 AM 26.8532 -81.7472 North  Level FlightAware Approximate
Fri 10:16:41 AM 26.6728 -81.6917 352° North 331 381 14,600  Level Miami Center
Fri 10:17:41 AM 26.7747 -81.7053 353° North 331 381 17,800 2,400 Climbing Miami Center
Fri 10:18:41 AM 26.8533 -81.7225 349° North 331 381 19,400 1,600 Climbing Miami Center
Fri 10:19:41 AM 26.9492 -81.7336 354° North 331 381 21,000 1,600 Climbing Miami Center
Fri 10:20:41 AM 27.0486 -81.7539 350° North 344 396 22,600 1,600 Climbing Miami Center
Fri 10:21:41 AM 27.1475 -81.7886 343° North 357 411 24,200 1,600 Climbing Miami Center
Fri 10:22:41 AM 27.2444 -81.8206 344° North 357 411 25,800 1,600 Climbing Miami Center
Fri 10:23:41 AM 27.3458 -81.8531 344° North 362 417 27,400 1,600 Climbing Miami Center
Fri 10:24:41 AM 27.4425 -81.8875 342° North 362 417 29,000 1,750 Climbing Miami Center
Fri 10:25:41 AM 27.5539 -81.9275 342° North 373 429 30,900 1,000 Climbing Miami Center
Fri 10:26:41 AM 27.6569 -81.9650 342° North 384 442 31,000 50 Climbing Miami Center
Fri 10:27:41 AM 27.7733 -81.9750 356° North 404 465 31,000  Level Miami Center
Fri 10:28:41 AM 27.8753 -81.9256 23° Northeast 419 482 31,000  Level Miami Center
Fri 10:29:41 AM 27.9808 -81.8339 37° Northeast 420 483 31,000  Level Miami Center
Fri 10:30:41 AM 28.0842 -81.7419 38° Northeast 452 520 31,000 900 Level Miami Center
Fri 10:31:41 AM 28.1831 -81.6544 38° Northeast 457 526 32,800 1,650 Climbing Miami Center
Fri 10:32:41 AM 28.2819 -81.5667 38° Northeast 451 519 34,300 1,500 Climbing Miami Center
Fri 10:33:41 AM 28.3722 -81.4856 38° Northeast 435 501 35,800 1,350 Climbing Miami Center
Fri 10:34:41 AM 28.4794 -81.3908 38° Northeast 435 501 37,000 600 Climbing Miami Center
Fri 10:35:41 AM 28.5917 -81.3433 20° North 425 489 37,000 109 Level Miami Center
Fri 10:39:15 AM 29.0050 -81.3803 356° North 447 514 37,500 460 Climbing Jacksonville Center
Fri 10:40:15 AM 29.1178 -81.3903 356° North 426 490 39,100 1,450 Climbing Jacksonville Center
Fri 10:41:15 AM 29.2244 -81.4006 355° North 394 453 40,400 950 Climbing Jacksonville Center
Fri 10:42:15 AM 29.3269 -81.4133 354° North 380 437 41,000 300 Climbing Jacksonville Center
Fri 10:43:15 AM 29.4333 -81.4236 355° North 375 432 41,000  Level Jacksonville Center
Fri 10:44:15 AM 29.5400 -81.4342 355° North 375 432 41,000  Level Jacksonville Center
Fri 10:45:15 AM 29.6550 -81.4442 356° North 392 451 41,000  Level Jacksonville Center
Fri 10:46:15 AM 29.7700 -81.4569 354° North 398 458 41,000  Level Jacksonville Center
Fri 10:47:15 AM 29.8867 -81.4433 North 409 471 41,000  Level Jacksonville Center
Fri 10:48:15 AM 30.0056 -81.4222 North 421 484 41,000  Level Jacksonville Center
Fri 10:49:15 AM 30.1242 -81.3989 10° North 426 490 41,000  Level Jacksonville Center
Fri 10:50:15 AM 30.2428 -81.3778 North 426 490 41,000  Level Jacksonville Center
Fri 10:51:15 AM 30.3636 -81.3542 10° North 426 490 41,000  Level Jacksonville Center
Fri 10:52:15 AM 30.4969 -81.3303 North 432 497 41,000  Level Jacksonville Center
Fri 10:53:15 AM 30.6158 -81.3092 North 432 497 41,000  Level Jacksonville Center
Fri 10:54:15 AM 30.7325 -81.2878 North 427 491 41,000  Level Jacksonville Center
Fri 10:55:15 AM 30.8489 -81.2397 20° North 427 491 41,000  Level Jacksonville Center
Fri 10:56:15 AM 30.9606 -81.1750 26° Northeast 444 511 41,000  Level Jacksonville Center
Fri 10:57:15 AM 31.0744 -81.1072 27° Northeast 452 520 41,000  Level Jacksonville Center
Fri 10:58:15 AM 31.1886 -81.0444 25° Northeast 446 513 41,000  Level Jacksonville Center
Fri 10:59:15 AM 31.3022 -80.9792 26° Northeast 446 513 41,000  Level Jacksonville Center
Fri 11:00:15 AM 31.3994 -80.9186 28° Northeast 440 506 41,000  Level Jacksonville Center
Fri 11:01:15 AM 31.5236 -80.8478 26° Northeast 450 518 41,000  Level Jacksonville Center
Fri 11:02:15 AM 31.6272 -80.7917 25° Northeast 450 518 41,000  Level Jacksonville Center
Fri 11:03:15 AM 31.7511 -80.7181 27° Northeast 445 512 41,000  Level Jacksonville Center
Fri 11:04:15 AM 31.8650 -80.6519 26° Northeast 445 512 41,000  Level Jacksonville Center
Fri 11:05:15 AM 31.9703 -80.5881 27° Northeast 445 512 41,000  Level Jacksonville Center
Fri 11:06:15 AM 32.0961 -80.5164 26° Northeast 450 518 41,000  Level Jacksonville Center
Fri 11:07:15 AM 32.1975 -80.4547 27° Northeast 455 524 41,000  Level Jacksonville Center
Fri 11:08:15 AM 32.3150 -80.3878 26° Northeast 455 524 41,000  Level Jacksonville Center
Fri 11:09:15 AM 32.4306 -80.3156 28° Northeast 455 524 41,000  Level Jacksonville Center
Fri 11:10:15 AM 32.5439 -80.2483 27° Northeast 461 531 41,000  Level Jacksonville Center
Fri 11:11:15 AM 32.6614 -80.1783 27° Northeast 461 531 41,000  Level Jacksonville Center
Fri 11:12:15 AM 32.7767 -80.1081 27° Northeast 461 531 41,000  Level Jacksonville Center
Fri 11:13:15 AM 32.8914 -80.0006 38° Northeast 466 536 41,000  Level Jacksonville Center
Fri 11:14:15 AM 32.9975 -79.9031 38° Northeast 472 543 41,000  Level Jacksonville Center
Fri 11:15:15 AM 33.1017 -79.8031 39° Northeast 477 549 41,000  Level Jacksonville Center
Fri 11:16:15 AM 33.2036 -79.7100 37° Northeast 477 549 41,000  Level Jacksonville Center
Fri 11:17:15 AM 33.3056 -79.6144 38° Northeast 477 549 41,000  Level Jacksonville Center
Fri 11:18:15 AM 33.4092 -79.5136 39° Northeast 477 549 41,000  Level Jacksonville Center
Fri 11:19:15 AM 33.5111 -79.4175 38° Northeast 477 549 41,000  Level Jacksonville Center
Fri 11:20:15 AM 33.6106 -79.3214 39° Northeast 472 543 41,000  Level Jacksonville Center
Fri 11:21:15 AM 33.7122 -79.2250 38° Northeast 466 536 41,000  Level Jacksonville Center
Fri 11:22:15 AM 33.8094 -79.1308 39° Northeast 450 518 41,000  Level Jacksonville Center
Fri 11:23:15 AM 33.9069 -79.0367 39° Northeast 455 524 41,000 -944 Level Jacksonville Center
Fri 11:25:13 AM 34.0917 -78.8617 38° Northeast 469 540 38,200 -1,773 Descending Washington Center
Fri 11:26:11 AM 34.1839 -78.7725 39° Northeast 446 513 35,800 -1,627 Descending Washington Center
Fri 11:27:11 AM 34.2781 -78.6808 39° Northeast 435 501 35,000 -397 Descending Washington Center
Fri 11:28:12 AM 34.3744 -78.5836 40° Northeast 435 501 35,000  Level Washington Center
Fri 11:29:12 AM 34.4706 -78.4889 39° Northeast 440 506 35,000  Level Washington Center
Fri 11:30:11 AM 34.5733 -78.3817 41° Northeast 440 506 35,000  Level Washington Center
Fri 11:31:11 AM 34.6586 -78.2961 40° Northeast 440 506 35,000  Level Washington Center
Fri 11:32:12 AM 34.7547 -78.2008 39° Northeast 440 506 35,000  Level Washington Center
Fri 11:33:12 AM 34.8553 -78.0875 43° Northeast 440 506 35,000  Level Washington Center
Fri 11:34:13 AM 34.9406 -78.0014 40° Northeast 445 512 35,000  Level Washington Center
Fri 11:35:11 AM 35.0364 -77.9031 40° Northeast 439 505 35,000 -504 Level Washington Center
Fri 11:36:12 AM 35.1319 -77.8067 40° Northeast 439 505 34,000 -1,279 Descending Washington Center
Fri 11:37:13 AM 35.2297 -77.7025 41° Northeast 445 512 32,400 -1,412 Descending Washington Center
Fri 11:38:11 AM 35.3275 -77.6033 40° Northeast 445 512 31,200 -712 Descending Washington Center
Fri 11:39:11 AM 35.4292 -77.5064 38° Northeast 451 519 31,000 -99 Descending Washington Center
Fri 11:40:12 AM 35.5350 -77.4144 35° Northeast 456 525 31,000  Level Washington Center
Fri 11:41:12 AM 35.6408 -77.3222 35° Northeast 462 532 31,000  Level Washington Center
Fri 11:42:13 AM 35.7442 -77.2300 36° Northeast 457 526 31,000  Level Washington Center
Fri 11:43:14 AM 35.8478 -77.1397 35° Northeast 457 526 31,000  Level Washington Center
Fri 11:44:11 AM 35.9575 -77.0417 36° Northeast 452 520 31,000  Level Washington Center
Fri 11:45:12 AM 36.0628 -76.9514 35° Northeast 452 520 31,000  Level Washington Center
Fri 11:46:13 AM 36.1681 -76.8553 36° Northeast 457 526 31,000 -151 Level Washington Center
Fri 11:47:11 AM 36.2714 -76.7617 36° Northeast 463 533 30,700 -958 Descending Washington Center
Fri 11:48:12 AM 36.3767 -76.6678 36° Northeast 457 526 29,100 -1,438 Descending Washington Center
Fri 11:49:12 AM 36.4794 -76.5761 36° Northeast 457 526 27,800 -1,041 Descending Washington Center
Fri 11:50:13 AM 36.5847 -76.4792 36° Northeast 457 526 27,000 -397 Descending Washington Center
Fri 11:51:13 AM 36.6833 -76.3869 37° Northeast 457 526 27,000  Level Washington Center
Fri 11:52:11 AM 36.7861 -76.2972 35° Northeast 457 526 27,000  Level Washington Center
Fri 11:53:12 AM 36.8825 -76.2072 37° Northeast 452 520 27,000  Level Washington Center
Fri 11:54:12 AM 36.9850 -76.1508 24° Northeast 447 514 27,000  Level Washington Center
Fri 11:55:13 AM 37.0981 -76.0892 24° Northeast 435 501 27,000  Level Washington Center
Fri 11:56:13 AM 37.2089 -76.0325 22° Northeast 430 495 27,000 -610 Level Washington Center
Fri 11:57:11 AM 37.3217 -75.9706 24° Northeast 430 495 25,800 -1,017 Descending Washington Center
Fri 11:58:11 AM 37.4322 -75.9136 22° Northeast 430 495 25,000 -397 Descending Washington Center
Fri 11:59:12 AM 37.5389 -75.8536 24° Northeast 430 495 25,000  Level Washington Center
Fri 12:00:12 PM 37.6453 -75.7753 30° Northeast 425 489 25,000  Level Washington Center
Fri 12:01:12 PM 37.7478 -75.6969 31° Northeast 430 495 25,000  Level Washington Center
Fri 12:02:10 PM 37.8519 -75.6206 30° Northeast 430 495 25,000  Level Washington Center
Fri 12:03:11 PM 37.9542 -75.5417 31° Northeast 430 495 25,000 -639 Level Washington Center
Fri 12:04:12 PM 38.0583 -75.4625 31° Northeast 430 495 23,700 -1,918 Descending Washington Center
Fri 12:05:13 PM 38.1731 -75.3911 26° Northeast 415 478 21,100 -2,331 Descending Washington Center
Fri 12:06:13 PM 38.2667 -75.3247 29° Northeast 400 460 19,000 -2,034 Descending Washington Center
Fri 12:07:11 PM 38.3625 -75.2686 25° Northeast 400 460 17,100 -2,034 Descending Washington Center
Fri 12:08:11 PM 38.4603 -75.2072 26° Northeast 400 460 15,000 -2,033 Descending Washington Center
Fri 12:09:12 PM 38.5517 -75.1511 26° Northeast 382 440 13,000 -1,918 Descending Washington Center
Fri 12:10:13 PM 38.6433 -75.0947 26° Northeast 369 425 11,100 -1,109 Descending Washington Center
Fri 12:11:11 PM 38.7328 -75.0381 26° Northeast 359 413 10,800 -814 Descending Washington Center
Fri 12:12:11 PM 38.8158 -74.9842 27° Northeast 348 400 9,500 -1,190 Descending Washington Center
Fri 12:13:12 PM 38.8928 -74.9356 26° Northeast 322 371 8,400 -900 Descending Washington Center
Fri 12:14:11 PM 38.9653 -74.8867 28° Northeast 303 349 7,700 -1,059 Descending Washington Center
Fri 12:15:11 PM 39.0381 -74.8406 26° Northeast 291 335 6,300 -1,339 Descending Washington Center
Fri 12:16:12 PM 39.1086 -74.7944 27° Northeast 285 328 5,000 -1,279 Descending Washington Center
Fri 12:17:13 PM 39.1750 -74.7564 24° Northeast 269 310 3,700 -1,059 Descending Washington Center
Fri 12:18:11 PM 39.2372 -74.7181 26° Northeast 257 296 2,900 -353 Descending Washington Center
Fri 12:19:12 PM 39.2975 -74.6797 26° Northeast 246 283 3,000 -595 Climbing Washington Center
Fri 12:20:12 PM 39.3578 -74.6522 19° North 236 272 1,700 -694 Descending Washington Center
Fri 12:21:13 PM 39.4181 -74.6325 14° North 230 265 1,600 -99 Descending Washington Center
Fri 12:22:13 PM 39.4783 -74.6128 14° North 223 257 1,500 -100 Descending Washington Center

Login

Don't have an account? Register now (free) for customized features, flight alerts, and more!